sensor_id;sensor_type;location;lat;lon;timestamp;temperature;humidity
7562;DHT22;3822;48.784;9.174;2023-05-10T00:04:15;16.20;98.50
7562;DHT22;3822;48.784;9.174;2023-05-10T00:06:44;17.20;99.00
7562;DHT22;3822;48.784;9.174;2023-05-10T00:09:12;17.10;99.00
7562;DHT22;3822;48.784;9.174;2023-05-10T00:11:45;17.00;99.00
7562;DHT22;3822;48.784;9.174;2023-05-10T00:17:01;16.90;99.00
7562;DHT22;3822;48.784;9.174;2023-05-10T00:19:40;16.90;99.10
7562;DHT22;3822;48.784;9.174;2023-05-10T00:22:06;16.80;99.00
7562;DHT22;3822;48.784;9.174;2023-05-10T00:24:33;16.80;98.90
7562;DHT22;3822;48.784;9.174;2023-05-10T00:27:00;16.80;98.90
7562;DHT22;3822;48.784;9.174;2023-05-10T00:32:08;16.70;98.80
7562;DHT22;3822;48.784;9.174;2023-05-10T00:34:42;16.60;98.70
7562;DHT22;3822;48.784;9.174;2023-05-10T00:37:27;16.60;98.70
7562;DHT22;3822;48.784;9.174;2023-05-10T00:39:53;16.50;98.60
7562;DHT22;3822;48.784;9.174;2023-05-10T00:42:33;16.00;98.40
7562;DHT22;3822;48.784;9.174;2023-05-10T00:44:59;16.50;98.60
7562;DHT22;3822;48.784;9.174;2023-05-10T00:50:15;16.40;98.50
7562;DHT22;3822;48.784;9.174;2023-05-10T00:52:58;16.40;98.50
7562;DHT22;3822;48.784;9.174;2023-05-10T01:01:02;16.30;98.50
7562;DHT22;3822;48.784;9.174;2023-05-10T01:03:28;16.30;98.60
7562;DHT22;3822;48.784;9.174;2023-05-10T01:15:36;16.20;98.60
7562;DHT22;3822;48.784;9.174;2023-05-10T01:18:13;16.10;98.60
7562;DHT22;3822;48.784;9.174;2023-05-10T01:21:00;16.10;98.60
7562;DHT22;3822;48.784;9.174;2023-05-10T01:38:01;16.00;98.60
7562;DHT22;3822;48.784;9.174;2023-05-10T01:40:37;16.00;98.60
7562;DHT22;3822;48.784;9.174;2023-05-10T01:43:23;16.00;98.60
7562;DHT22;3822;48.784;9.174;2023-05-10T01:46:04;16.00;98.90
7562;DHT22;3822;48.784;9.174;2023-05-10T01:48:47;16.10;98.70
7562;DHT22;3822;48.784;9.174;2023-05-10T01:51:22;16.00;98.60
7562;DHT22;3822;48.784;9.174;2023-05-10T01:57:07;16.10;98.60
7562;DHT22;3822;48.784;9.174;2023-05-10T01:59:36;16.10;98.60
7562;DHT22;3822;48.784;9.174;2023-05-10T02:05:14;16.10;98.50
7562;DHT22;3822;48.784;9.174;2023-05-10T02:07:44;16.00;98.40
7562;DHT22;3822;48.784;9.174;2023-05-10T02:10:13;16.10;98.50
7562;DHT22;3822;48.784;9.174;2023-05-10T02:12:47;16.10;98.50
7562;DHT22;3822;48.784;9.174;2023-05-10T02:15:22;16.00;98.50
7562;DHT22;3822;48.784;9.174;2023-05-10T02:20:46;16.10;98.50
7562;DHT22;3822;48.784;9.174;2023-05-10T02:23:13;16.10;98.50
7562;DHT22;3822;48.784;9.174;2023-05-10T02:25:42;16.10;98.50
7562;DHT22;3822;48.784;9.174;2023-05-10T02:28:27;16.20;98.60
7562;DHT22;3822;48.784;9.174;2023-05-10T02:33:49;16.20;98.50
7562;DHT22;3822;48.784;9.174;2023-05-10T02:36:18;16.20;98.50
7562;DHT22;3822;48.784;9.174;2023-05-10T02:41:21;16.20;98.40
7562;DHT22;3822;48.784;9.174;2023-05-10T02:43:53;16.20;98.40
7562;DHT22;3822;48.784;9.174;2023-05-10T02:46:24;16.20;98.40
7562;DHT22;3822;48.784;9.174;2023-05-10T02:49:07;16.20;98.30
7562;DHT22;3822;48.784;9.174;2023-05-10T02:51:51;16.20;98.30
7562;DHT22;3822;48.784;9.174;2023-05-10T02:57:22;16.20;98.30
7562;DHT22;3822;48.784;9.174;2023-05-10T02:59:54;16.20;98.30
7562;DHT22;3822;48.784;9.174;2023-05-10T03:02:25;16.20;98.20
7562;DHT22;3822;48.784;9.174;2023-05-10T03:07:42;16.10;98.20
7562;DHT22;3822;48.784;9.174;2023-05-10T03:10:15;16.20;98.20
7562;DHT22;3822;48.784;9.174;2023-05-10T03:22:21;16.00;98.10
7562;DHT22;3822;48.784;9.174;2023-05-10T03:25:00;16.00;98.20
7562;DHT22;3822;48.784;9.174;2023-05-10T03:27:32;16.00;98.20
7562;DHT22;3822;48.784;9.174;2023-05-10T03:30:07;15.90;98.20
7562;DHT22;3822;48.784;9.174;2023-05-10T03:32:47;15.90;98.20
7562;DHT22;3822;48.784;9.174;2023-05-10T03:35:15;15.90;98.20
7562;DHT22;3822;48.784;9.174;2023-05-10T03:37:45;15.90;98.20
7562;DHT22;3822;48.784;9.174;2023-05-10T03:40:13;15.90;98.20
7562;DHT22;3822;48.784;9.174;2023-05-10T03:42:51;15.90;98.10
7562;DHT22;3822;48.784;9.174;2023-05-10T03:45:28;15.80;98.10
7562;DHT22;3822;48.784;9.174;2023-05-10T03:48:02;15.80;98.10
7562;DHT22;3822;48.784;9.174;2023-05-10T03:50:43;15.90;98.20
7562;DHT22;3822;48.784;9.174;2023-05-10T03:53:15;15.90;98.20
7562;DHT22;3822;48.784;9.174;2023-05-10T03:55:47;15.80;98.20
7562;DHT22;3822;48.784;9.174;2023-05-10T03:58:22;15.80;98.20
7562;DHT22;3822;48.784;9.174;2023-05-10T04:00:57;15.80;98.20
7562;DHT22;3822;48.784;9.174;2023-05-10T04:03:27;15.80;98.30
7562;DHT22;3822;48.784;9.174;2023-05-10T04:08:41;15.70;98.30
7562;DHT22;3822;48.784;9.174;2023-05-10T04:13:57;15.70;98.60
7562;DHT22;3822;48.784;9.174;2023-05-10T04:16:26;15.60;98.40
7562;DHT22;3822;48.784;9.174;2023-05-10T04:18:52;15.60;98.40
7562;DHT22;3822;48.784;9.174;2023-05-10T04:21:21;15.60;98.40
7562;DHT22;3822;48.784;9.174;2023-05-10T04:26:22;15.50;98.50
7562;DHT22;3822;48.784;9.174;2023-05-10T04:28:56;15.60;98.60
7562;DHT22;3822;48.784;9.174;2023-05-10T04:31:22;15.60;98.70
7562;DHT22;3822;48.784;9.174;2023-05-10T04:33:48;15.60;98.70
7562;DHT22;3822;48.784;9.174;2023-05-10T04:36:16;15.50;98.70
7562;DHT22;3822;48.784;9.174;2023-05-10T04:41:14;15.50;98.80
7562;DHT22;3822;48.784;9.174;2023-05-10T04:43:40;15.60;98.80
7562;DHT22;3822;48.784;9.174;2023-05-10T04:46:08;15.60;99.20
7562;DHT22;3822;48.784;9.174;2023-05-10T04:48:47;15.60;98.80
7562;DHT22;3822;48.784;9.174;2023-05-10T04:51:20;15.60;98.80
7562;DHT22;3822;48.784;9.174;2023-05-10T04:53:48;15.60;98.90
7562;DHT22;3822;48.784;9.174;2023-05-10T04:56:14;15.60;98.80
7562;DHT22;3822;48.784;9.174;2023-05-10T04:58:42;15.70;98.90
7562;DHT22;3822;48.784;9.174;2023-05-10T05:01:09;15.70;98.90
7562;DHT22;3822;48.784;9.174;2023-05-10T05:03:36;15.70;98.90
7562;DHT22;3822;48.784;9.174;2023-05-10T05:06:02;15.70;98.80
7562;DHT22;3822;48.784;9.174;2023-05-10T05:08:29;15.80;98.90
7562;DHT22;3822;48.784;9.174;2023-05-10T05:10:58;15.80;98.80
7562;DHT22;3822;48.784;9.174;2023-05-10T05:13:37;15.80;98.90
7562;DHT22;3822;48.784;9.174;2023-05-10T05:16:04;15.80;98.90
7562;DHT22;3822;48.784;9.174;2023-05-10T05:18:31;15.80;98.80
7562;DHT22;3822;48.784;9.174;2023-05-10T05:20:58;15.80;98.80
7562;DHT22;3822;48.784;9.174;2023-05-10T05:23:30;15.80;98.90
7562;DHT22;3822;48.784;9.174;2023-05-10T05:25:57;15.90;98.90
7562;DHT22;3822;48.784;9.174;2023-05-10T05:28:25;15.80;98.90
7562;DHT22;3822;48.784;9.174;2023-05-10T05:30:52;15.90;98.90
7562;DHT22;3822;48.784;9.174;2023-05-10T05:33:18;15.80;98.70
7562;DHT22;3822;48.784;9.174;2023-05-10T05:35:45;15.90;98.80
7562;DHT22;3822;48.784;9.174;2023-05-10T05:38:18;15.90;98.70
7562;DHT22;3822;48.784;9.174;2023-05-10T05:40:45;14.50;98.10
7562;DHT22;3822;48.784;9.174;2023-05-10T05:43:11;16.00;98.70
7562;DHT22;3822;48.784;9.174;2023-05-10T05:48:08;15.90;98.60
7562;DHT22;3822;48.784;9.174;2023-05-10T05:50:34;16.70;98.90
7562;DHT22;3822;48.784;9.174;2023-05-10T05:53:02;16.00;98.50
7562;DHT22;3822;48.784;9.174;2023-05-10T05:55:31;16.00;98.50
7562;DHT22;3822;48.784;9.174;2023-05-10T05:57:59;16.00;98.50
7562;DHT22;3822;48.784;9.174;2023-05-10T06:00:27;16.10;98.60
7562;DHT22;3822;48.784;9.174;2023-05-10T06:02:53;16.10;98.50
7562;DHT22;3822;48.784;9.174;2023-05-10T06:05:20;16.00;98.40
7562;DHT22;3822;48.784;9.174;2023-05-10T06:07:47;16.10;98.50
7562;DHT22;3822;48.784;9.174;2023-05-10T06:10:13;16.10;98.40
7562;DHT22;3822;48.784;9.174;2023-05-10T06:12:40;16.10;98.40
7562;DHT22;3822;48.784;9.174;2023-05-10T06:15:07;16.00;98.40
7562;DHT22;3822;48.784;9.174;2023-05-10T06:17:34;16.10;98.40
7562;DHT22;3822;48.784;9.174;2023-05-10T06:20:00;16.10;98.30
7562;DHT22;3822;48.784;9.174;2023-05-10T06:22:27;16.10;98.30
7562;DHT22;3822;48.784;9.174;2023-05-10T06:24:53;16.10;98.30
7562;DHT22;3822;48.784;9.174;2023-05-10T06:27:19;16.20;98.30
7562;DHT22;3822;48.784;9.174;2023-05-10T06:29:45;16.20;98.30
7562;DHT22;3822;48.784;9.174;2023-05-10T06:32:12;16.10;98.20
7562;DHT22;3822;48.784;9.174;2023-05-10T06:34:38;16.20;98.20
7562;DHT22;3822;48.784;9.174;2023-05-10T06:37:04;16.10;98.20
7562;DHT22;3822;48.784;9.174;2023-05-10T06:39:31;16.20;98.20
7562;DHT22;3822;48.784;9.174;2023-05-10T06:41:57;16.20;98.30
7562;DHT22;3822;48.784;9.174;2023-05-10T06:44:23;16.10;98.20
7562;DHT22;3822;48.784;9.174;2023-05-10T06:46:50;16.20;98.40
7562;DHT22;3822;48.784;9.174;2023-05-10T06:49:18;16.20;98.50
7562;DHT22;3822;48.784;9.174;2023-05-10T06:51:47;16.10;98.50
7562;DHT22;3822;48.784;9.174;2023-05-10T06:54:14;16.10;98.50
7562;DHT22;3822;48.784;9.174;2023-05-10T06:56:40;16.20;98.50
7562;DHT22;3822;48.784;9.174;2023-05-10T06:59:06;16.20;98.40
7562;DHT22;3822;48.784;9.174;2023-05-10T07:01:33;16.10;98.30
7562;DHT22;3822;48.784;9.174;2023-05-10T07:03:59;16.20;98.40
7562;DHT22;3822;48.784;9.174;2023-05-10T07:06:26;16.20;98.40
7562;DHT22;3822;48.784;9.174;2023-05-10T07:08:53;16.20;98.40
7562;DHT22;3822;48.784;9.174;2023-05-10T07:11:19;16.20;98.30
7562;DHT22;3822;48.784;9.174;2023-05-10T07:13:46;16.20;98.20
7562;DHT22;3822;48.784;9.174;2023-05-10T07:16:12;16.20;98.20
7562;DHT22;3822;48.784;9.174;2023-05-10T07:18:38;16.20;98.10
7562;DHT22;3822;48.784;9.174;2023-05-10T07:21:04;16.20;98.10
7562;DHT22;3822;48.784;9.174;2023-05-10T07:23:31;16.30;98.20
7562;DHT22;3822;48.784;9.174;2023-05-10T07:25:57;16.30;98.10
7562;DHT22;3822;48.784;9.174;2023-05-10T07:28:23;16.40;98.20
7562;DHT22;3822;48.784;9.174;2023-05-10T07:30:51;16.40;98.10
7562;DHT22;3822;48.784;9.174;2023-05-10T07:33:17;16.40;98.10
7562;DHT22;3822;48.784;9.174;2023-05-10T07:35:43;16.50;98.10
7562;DHT22;3822;48.784;9.174;2023-05-10T07:38:10;16.50;98.10
7562;DHT22;3822;48.784;9.174;2023-05-10T07:40:36;16.50;98.00
7562;DHT22;3822;48.784;9.174;2023-05-10T07:43:04;16.60;98.00
7562;DHT22;3822;48.784;9.174;2023-05-10T07:45:30;16.60;97.90
7562;DHT22;3822;48.784;9.174;2023-05-10T07:47:56;16.70;97.90
7562;DHT22;3822;48.784;9.174;2023-05-10T07:50:25;16.80;97.90
7562;DHT22;3822;48.784;9.174;2023-05-10T07:52:54;16.80;97.80
7562;DHT22;3822;48.784;9.174;2023-05-10T07:55:20;16.90;97.60
7562;DHT22;3822;48.784;9.174;2023-05-10T07:57:49;16.90;97.30
7562;DHT22;3822;48.784;9.174;2023-05-10T08:00:19;17.00;97.20
7562;DHT22;3822;48.784;9.174;2023-05-10T08:02:46;17.00;97.00
7562;DHT22;3822;48.784;9.174;2023-05-10T08:05:13;17.10;96.70
7562;DHT22;3822;48.784;9.174;2023-05-10T08:07:39;17.00;96.50
7562;DHT22;3822;48.784;9.174;2023-05-10T08:10:05;17.10;96.60
7562;DHT22;3822;48.784;9.174;2023-05-10T08:12:35;17.10;96.40
7562;DHT22;3822;48.784;9.174;2023-05-10T08:15:01;17.10;96.30
7562;DHT22;3822;48.784;9.174;2023-05-10T08:17:27;17.10;96.10
7562;DHT22;3822;48.784;9.174;2023-05-10T08:19:54;17.20;95.90
7562;DHT22;3822;48.784;9.174;2023-05-10T08:22:21;17.10;95.50
7562;DHT22;3822;48.784;9.174;2023-05-10T08:24:48;17.10;95.60
7562;DHT22;3822;48.784;9.174;2023-05-10T08:27:18;17.20;95.50
7562;DHT22;3822;48.784;9.174;2023-05-10T08:29:44;16.70;95.40
7562;DHT22;3822;48.784;9.174;2023-05-10T08:32:10;17.20;95.50
7562;DHT22;3822;48.784;9.174;2023-05-10T08:34:39;17.20;95.60
7562;DHT22;3822;48.784;9.174;2023-05-10T08:37:05;17.20;95.60
7562;DHT22;3822;48.784;9.174;2023-05-10T08:39:37;18.30;95.90
7562;DHT22;3822;48.784;9.174;2023-05-10T08:42:04;17.30;95.50
7562;DHT22;3822;48.784;9.174;2023-05-10T08:44:34;17.30;95.30
7562;DHT22;3822;48.784;9.174;2023-05-10T08:47:05;17.30;95.30
7562;DHT22;3822;48.784;9.174;2023-05-10T08:49:35;17.40;95.20
7562;DHT22;3822;48.784;9.174;2023-05-10T08:52:03;17.40;95.10
7562;DHT22;3822;48.784;9.174;2023-05-10T08:54:31;17.40;94.80
7562;DHT22;3822;48.784;9.174;2023-05-10T08:57:00;17.40;94.50
7562;DHT22;3822;48.784;9.174;2023-05-10T08:59:27;17.40;94.50
7562;DHT22;3822;48.784;9.174;2023-05-10T09:01:57;17.50;94.40
7562;DHT22;3822;48.784;9.174;2023-05-10T09:04:24;17.50;94.20
7562;DHT22;3822;48.784;9.174;2023-05-10T09:06:51;17.60;94.10
7562;DHT22;3822;48.784;9.174;2023-05-10T09:09:17;17.50;93.90
7562;DHT22;3822;48.784;9.174;2023-05-10T09:11:44;17.60;94.00
7562;DHT22;3822;48.784;9.174;2023-05-10T09:14:11;16.50;93.40
7562;DHT22;3822;48.784;9.174;2023-05-10T09:16:38;17.60;93.90
7562;DHT22;3822;48.784;9.174;2023-05-10T09:19:05;17.60;93.70
7562;DHT22;3822;48.784;9.174;2023-05-10T09:21:33;17.60;93.20
7562;DHT22;3822;48.784;9.174;2023-05-10T09:24:03;17.60;92.50
7562;DHT22;3822;48.784;9.174;2023-05-10T09:26:30;17.60;92.40
7562;DHT22;3822;48.784;9.174;2023-05-10T09:28:58;17.50;92.50
7562;DHT22;3822;48.784;9.174;2023-05-10T09:31:42;17.50;92.10
7562;DHT22;3822;48.784;9.174;2023-05-10T09:34:18;17.50;92.10
7562;DHT22;3822;48.784;9.174;2023-05-10T09:36:55;17.50;92.10
7562;DHT22;3822;48.784;9.174;2023-05-10T09:39:33;17.50;92.10
7562;DHT22;3822;48.784;9.174;2023-05-10T09:42:02;17.50;92.20
7562;DHT22;3822;48.784;9.174;2023-05-10T09:44:33;17.50;92.20
7562;DHT22;3822;48.784;9.174;2023-05-10T09:47:00;17.00;92.00
7562;DHT22;3822;48.784;9.174;2023-05-10T09:49:27;17.60;92.20
7562;DHT22;3822;48.784;9.174;2023-05-10T09:52:06;17.60;92.20
7562;DHT22;3822;48.784;9.174;2023-05-10T09:54:33;17.60;91.80
7562;DHT22;3822;48.784;9.174;2023-05-10T09:57:00;17.70;92.10
7562;DHT22;3822;48.784;9.174;2023-05-10T09:59:26;17.80;92.10
7562;DHT22;3822;48.784;9.174;2023-05-10T10:01:57;17.80;92.10
7562;DHT22;3822;48.784;9.174;2023-05-10T10:04:25;17.80;91.90
7562;DHT22;3822;48.784;9.174;2023-05-10T10:07:00;17.90;91.70
7562;DHT22;3822;48.784;9.174;2023-05-10T10:09:28;17.80;91.60
7562;DHT22;3822;48.784;9.174;2023-05-10T10:11:55;17.90;91.60
7562;DHT22;3822;48.784;9.174;2023-05-10T10:14:22;17.90;91.50
7562;DHT22;3822;48.784;9.174;2023-05-10T10:16:52;17.90;91.60
7562;DHT22;3822;48.784;9.174;2023-05-10T10:19:19;17.90;91.40
7562;DHT22;3822;48.784;9.174;2023-05-10T10:21:48;17.80;91.20
7562;DHT22;3822;48.784;9.174;2023-05-10T10:24:16;17.80;91.20
7562;DHT22;3822;48.784;9.174;2023-05-10T10:26:42;17.80;91.30
7562;DHT22;3822;48.784;9.174;2023-05-10T10:31:46;17.90;91.10
7562;DHT22;3822;48.784;9.174;2023-05-10T10:34:25;17.90;91.10
7562;DHT22;3822;48.784;9.174;2023-05-10T10:36:56;18.00;91.20
7562;DHT22;3822;48.784;9.174;2023-05-10T10:39:23;18.00;91.10
7562;DHT22;3822;48.784;9.174;2023-05-10T10:41:53;18.10;90.90
7562;DHT22;3822;48.784;9.174;2023-05-10T10:44:33;18.10;90.80
7562;DHT22;3822;48.784;9.174;2023-05-10T10:47:20;18.10;91.00
7562;DHT22;3822;48.784;9.174;2023-05-10T10:52:27;18.10;90.90
7562;DHT22;3822;48.784;9.174;2023-05-10T10:57:27;18.00;90.00
7562;DHT22;3822;48.784;9.174;2023-05-10T11:02:52;18.00;88.10
7562;DHT22;3822;48.784;9.174;2023-05-10T11:10:38;17.80;87.30
7562;DHT22;3822;48.784;9.174;2023-05-10T11:13:06;17.70;86.80
7562;DHT22;3822;48.784;9.174;2023-05-10T11:20:42;17.60;86.50
7562;DHT22;3822;48.784;9.174;2023-05-10T11:23:13;17.60;86.60
7562;DHT22;3822;48.784;9.174;2023-05-10T11:25:45;17.50;86.90
7562;DHT22;3822;48.784;9.174;2023-05-10T11:28:14;17.60;87.20
7562;DHT22;3822;48.784;9.174;2023-05-10T11:30:43;17.60;87.60
7562;DHT22;3822;48.784;9.174;2023-05-10T11:33:11;17.60;87.70
7562;DHT22;3822;48.784;9.174;2023-05-10T11:35:41;17.70;87.90
7562;DHT22;3822;48.784;9.174;2023-05-10T11:38:08;17.80;88.00
7562;DHT22;3822;48.784;9.174;2023-05-10T11:40:35;16.20;86.40
7562;DHT22;3822;48.784;9.174;2023-05-10T11:43:02;17.80;86.50
7562;DHT22;3822;48.784;9.174;2023-05-10T11:45:31;17.80;86.50
7562;DHT22;3822;48.784;9.174;2023-05-10T11:47:58;17.70;86.30
7562;DHT22;3822;48.784;9.174;2023-05-10T11:50:25;17.70;86.40
7562;DHT22;3822;48.784;9.174;2023-05-10T11:52:52;17.70;85.90
7562;DHT22;3822;48.784;9.174;2023-05-10T11:55:20;17.70;85.90
7562;DHT22;3822;48.784;9.174;2023-05-10T11:57:46;17.60;85.60
7562;DHT22;3822;48.784;9.174;2023-05-10T12:00:13;17.60;85.80
7562;DHT22;3822;48.784;9.174;2023-05-10T12:02:39;17.50;85.90
7562;DHT22;3822;48.784;9.174;2023-05-10T12:05:06;17.50;86.40
7562;DHT22;3822;48.784;9.174;2023-05-10T12:07:33;17.50;86.30
7562;DHT22;3822;48.784;9.174;2023-05-10T12:10:06;17.40;86.00
7562;DHT22;3822;48.784;9.174;2023-05-10T12:12:38;17.40;86.30
7562;DHT22;3822;48.784;9.174;2023-05-10T12:15:17;17.40;86.30
7562;DHT22;3822;48.784;9.174;2023-05-10T12:17:50;17.40;86.30
7562;DHT22;3822;48.784;9.174;2023-05-10T12:20:17;17.40;86.70
7562;DHT22;3822;48.784;9.174;2023-05-10T12:22:49;17.40;86.80
7562;DHT22;3822;48.784;9.174;2023-05-10T12:25:22;17.50;86.90
7562;DHT22;3822;48.784;9.174;2023-05-10T12:27:56;17.50;86.60
7562;DHT22;3822;48.784;9.174;2023-05-10T12:30:24;17.50;87.00
7562;DHT22;3822;48.784;9.174;2023-05-10T12:32:51;17.60;87.00
7562;DHT22;3822;48.784;9.174;2023-05-10T12:35:18;17.60;86.90
7562;DHT22;3822;48.784;9.174;2023-05-10T12:37:52;17.70;86.90
7562;DHT22;3822;48.784;9.174;2023-05-10T12:40:19;17.70;86.60
7562;DHT22;3822;48.784;9.174;2023-05-10T12:42:45;17.80;86.40
7562;DHT22;3822;48.784;9.174;2023-05-10T12:45:16;17.80;84.70
7562;DHT22;3822;48.784;9.174;2023-05-10T12:47:43;17.80;83.90
7562;DHT22;3822;48.784;9.174;2023-05-10T12:50:09;17.90;83.50
7562;DHT22;3822;48.784;9.174;2023-05-10T12:52:36;17.90;83.40
7562;DHT22;3822;48.784;9.174;2023-05-10T12:55:03;17.90;83.20
7562;DHT22;3822;48.784;9.174;2023-05-10T12:57:29;17.90;82.50
7562;DHT22;3822;48.784;9.174;2023-05-10T12:59:55;17.90;82.40
7562;DHT22;3822;48.784;9.174;2023-05-10T13:02:22;17.80;82.50
7562;DHT22;3822;48.784;9.174;2023-05-10T13:04:49;17.80;82.90
7562;DHT22;3822;48.784;9.174;2023-05-10T13:07:15;17.80;83.30
7562;DHT22;3822;48.784;9.174;2023-05-10T13:09:41;17.80;84.20
7562;DHT22;3822;48.784;9.174;2023-05-10T13:12:08;17.80;83.80
7562;DHT22;3822;48.784;9.174;2023-05-10T13:14:34;17.80;83.90
7562;DHT22;3822;48.784;9.174;2023-05-10T13:17:00;17.80;83.90
7562;DHT22;3822;48.784;9.174;2023-05-10T13:19:27;17.90;84.10
7562;DHT22;3822;48.784;9.174;2023-05-10T13:21:53;17.90;83.70
7562;DHT22;3822;48.784;9.174;2023-05-10T13:24:19;17.90;83.20
7562;DHT22;3822;48.784;9.174;2023-05-10T13:26:46;17.90;82.80
7562;DHT22;3822;48.784;9.174;2023-05-10T13:29:12;18.00;82.50
7562;DHT22;3822;48.784;9.174;2023-05-10T13:31:38;17.90;82.30
7562;DHT22;3822;48.784;9.174;2023-05-10T13:34:05;17.90;82.20
7562;DHT22;3822;48.784;9.174;2023-05-10T13:36:31;18.00;82.40
7562;DHT22;3822;48.784;9.174;2023-05-10T13:38:57;18.00;82.50
7562;DHT22;3822;48.784;9.174;2023-05-10T13:41:24;18.00;82.40
7562;DHT22;3822;48.784;9.174;2023-05-10T13:43:51;18.00;82.50
7562;DHT22;3822;48.784;9.174;2023-05-10T13:46:17;18.10;82.70
7562;DHT22;3822;48.784;9.174;2023-05-10T13:48:44;18.10;82.30
7562;DHT22;3822;48.784;9.174;2023-05-10T13:51:10;18.20;82.60
7562;DHT22;3822;48.784;9.174;2023-05-10T13:53:36;18.20;82.50
7562;DHT22;3822;48.784;9.174;2023-05-10T13:56:05;16.60;80.60
7562;DHT22;3822;48.784;9.174;2023-05-10T13:58:32;18.30;82.40
7562;DHT22;3822;48.784;9.174;2023-05-10T14:00:58;18.30;82.10
7562;DHT22;3822;48.784;9.174;2023-05-10T14:03:25;18.40;82.10
7562;DHT22;3822;48.784;9.174;2023-05-10T14:05:52;18.40;81.10
7562;DHT22;3822;48.784;9.174;2023-05-10T14:08:18;18.40;80.20
7562;DHT22;3822;48.784;9.174;2023-05-10T14:10:44;18.40;80.40
7562;DHT22;3822;48.784;9.174;2023-05-10T14:13:10;18.40;79.80
7562;DHT22;3822;48.784;9.174;2023-05-10T14:15:39;18.50;78.10
7562;DHT22;3822;48.784;9.174;2023-05-10T14:18:05;18.50;77.60
7562;DHT22;3822;48.784;9.174;2023-05-10T14:20:34;18.50;77.60
7562;DHT22;3822;48.784;9.174;2023-05-10T14:23:00;18.50;77.30
7562;DHT22;3822;48.784;9.174;2023-05-10T14:25:27;18.50;76.60
7562;DHT22;3822;48.784;9.174;2023-05-10T14:27:53;18.50;76.70
7562;DHT22;3822;48.784;9.174;2023-05-10T14:30:20;18.10;75.70
7562;DHT22;3822;48.784;9.174;2023-05-10T14:32:46;18.60;76.20
7562;DHT22;3822;48.784;9.174;2023-05-10T14:35:13;18.60;75.90
7562;DHT22;3822;48.784;9.174;2023-05-10T14:37:39;18.60;75.60
7562;DHT22;3822;48.784;9.174;2023-05-10T14:40:08;18.60;75.50
7562;DHT22;3822;48.784;9.174;2023-05-10T14:42:35;18.60;75.70
7562;DHT22;3822;48.784;9.174;2023-05-10T14:45:02;18.70;75.80
7562;DHT22;3822;48.784;9.174;2023-05-10T14:47:29;18.70;75.70
7562;DHT22;3822;48.784;9.174;2023-05-10T14:49:56;18.70;76.00
7562;DHT22;3822;48.784;9.174;2023-05-10T14:52:22;18.70;75.20
7562;DHT22;3822;48.784;9.174;2023-05-10T14:54:48;18.80;75.50
7562;DHT22;3822;48.784;9.174;2023-05-10T14:57:15;18.80;75.50
7562;DHT22;3822;48.784;9.174;2023-05-10T14:59:41;18.80;75.60
7562;DHT22;3822;48.784;9.174;2023-05-10T15:02:07;18.80;75.20
7562;DHT22;3822;48.784;9.174;2023-05-10T15:04:34;18.90;75.30
7562;DHT22;3822;48.784;9.174;2023-05-10T15:07:00;18.90;75.20
7562;DHT22;3822;48.784;9.174;2023-05-10T15:09:27;18.90;75.40
7562;DHT22;3822;48.784;9.174;2023-05-10T15:11:53;18.90;75.50
7562;DHT22;3822;48.784;9.174;2023-05-10T15:14:20;18.90;75.70
7562;DHT22;3822;48.784;9.174;2023-05-10T15:16:47;19.00;75.80
7562;DHT22;3822;48.784;9.174;2023-05-10T15:19:14;18.90;75.40
7562;DHT22;3822;48.784;9.174;2023-05-10T15:21:41;19.00;75.70
7562;DHT22;3822;48.784;9.174;2023-05-10T15:24:10;18.90;75.50
7562;DHT22;3822;48.784;9.174;2023-05-10T15:26:36;19.00;75.80
7562;DHT22;3822;48.784;9.174;2023-05-10T15:29:02;19.00;75.60
7562;DHT22;3822;48.784;9.174;2023-05-10T15:31:29;19.00;75.70
7562;DHT22;3822;48.784;9.174;2023-05-10T15:33:56;19.00;75.80
7562;DHT22;3822;48.784;9.174;2023-05-10T15:36:23;19.00;75.80
7562;DHT22;3822;48.784;9.174;2023-05-10T15:38:49;19.00;76.20
7562;DHT22;3822;48.784;9.174;2023-05-10T15:41:15;19.00;75.90
7562;DHT22;3822;48.784;9.174;2023-05-10T15:43:46;19.00;75.70
7562;DHT22;3822;48.784;9.174;2023-05-10T15:46:12;19.10;75.50
7562;DHT22;3822;48.784;9.174;2023-05-10T15:48:39;19.10;75.50
7562;DHT22;3822;48.784;9.174;2023-05-10T15:51:05;19.00;74.30
7562;DHT22;3822;48.784;9.174;2023-05-10T15:53:31;19.10;74.00
7562;DHT22;3822;48.784;9.174;2023-05-10T15:55:58;19.10;73.40
7562;DHT22;3822;48.784;9.174;2023-05-10T15:58:24;19.10;72.80
7562;DHT22;3822;48.784;9.174;2023-05-10T16:00:50;19.00;71.80
7562;DHT22;3822;48.784;9.174;2023-05-10T16:03:16;19.00;72.30
7562;DHT22;3822;48.784;9.174;2023-05-10T16:05:43;19.00;72.50
7562;DHT22;3822;48.784;9.174;2023-05-10T16:08:09;18.90;72.60
7562;DHT22;3822;48.784;9.174;2023-05-10T16:10:36;19.00;73.00
7562;DHT22;3822;48.784;9.174;2023-05-10T16:13:06;19.00;73.20
7562;DHT22;3822;48.784;9.174;2023-05-10T16:15:33;19.00;72.80
7562;DHT22;3822;48.784;9.174;2023-05-10T16:17:59;19.00;72.80
7562;DHT22;3822;48.784;9.174;2023-05-10T16:20:26;19.00;73.10
7562;DHT22;3822;48.784;9.174;2023-05-10T16:22:52;19.10;73.00
7562;DHT22;3822;48.784;9.174;2023-05-10T16:25:21;19.00;72.20
7562;DHT22;3822;48.784;9.174;2023-05-10T16:27:49;19.00;71.80
7562;DHT22;3822;48.784;9.174;2023-05-10T16:30:18;19.00;71.50
7562;DHT22;3822;48.784;9.174;2023-05-10T16:32:45;18.90;71.40
7562;DHT22;3822;48.784;9.174;2023-05-10T16:35:11;18.90;71.80
7562;DHT22;3822;48.784;9.174;2023-05-10T16:37:37;19.00;72.10
7562;DHT22;3822;48.784;9.174;2023-05-10T16:40:04;19.00;72.00
7562;DHT22;3822;48.784;9.174;2023-05-10T16:42:31;19.00;72.40
7562;DHT22;3822;48.784;9.174;2023-05-10T16:44:58;19.00;72.70
7562;DHT22;3822;48.784;9.174;2023-05-10T16:47:32;19.00;72.70
7562;DHT22;3822;48.784;9.174;2023-05-10T16:49:59;19.00;72.80
7562;DHT22;3822;48.784;9.174;2023-05-10T16:52:27;19.10;73.00
7562;DHT22;3822;48.784;9.174;2023-05-10T16:54:54;19.10;73.30
7562;DHT22;3822;48.784;9.174;2023-05-10T16:57:20;19.10;73.50
7562;DHT22;3822;48.784;9.174;2023-05-10T16:59:47;19.10;73.60
7562;DHT22;3822;48.784;9.174;2023-05-10T17:02:13;19.10;73.60
7562;DHT22;3822;48.784;9.174;2023-05-10T17:04:43;19.10;73.60
7562;DHT22;3822;48.784;9.174;2023-05-10T17:07:10;19.10;73.50
7562;DHT22;3822;48.784;9.174;2023-05-10T17:09:38;19.10;73.50
7562;DHT22;3822;48.784;9.174;2023-05-10T17:12:05;19.00;73.30
7562;DHT22;3822;48.784;9.174;2023-05-10T17:14:31;19.10;73.50
7562;DHT22;3822;48.784;9.174;2023-05-10T17:16:57;19.00;73.60
7562;DHT22;3822;48.784;9.174;2023-05-10T17:19:26;19.00;73.60
7562;DHT22;3822;48.784;9.174;2023-05-10T17:21:53;19.00;73.50
7562;DHT22;3822;48.784;9.174;2023-05-10T17:24:19;19.00;73.70
7562;DHT22;3822;48.784;9.174;2023-05-10T17:26:46;19.00;74.30
7562;DHT22;3822;48.784;9.174;2023-05-10T17:29:12;18.90;73.70
7562;DHT22;3822;48.784;9.174;2023-05-10T17:31:41;18.90;73.60
7562;DHT22;3822;48.784;9.174;2023-05-10T17:34:08;18.90;73.50
7562;DHT22;3822;48.784;9.174;2023-05-10T17:36:34;18.90;73.60
7562;DHT22;3822;48.784;9.174;2023-05-10T17:39:00;18.80;73.70
7562;DHT22;3822;48.784;9.174;2023-05-10T17:41:29;18.70;73.60
7562;DHT22;3822;48.784;9.174;2023-05-10T17:43:55;19.20;74.20
7562;DHT22;3822;48.784;9.174;2023-05-10T17:46:22;18.70;73.70
7562;DHT22;3822;48.784;9.174;2023-05-10T17:48:48;18.60;73.80
7562;DHT22;3822;48.784;9.174;2023-05-10T17:51:15;18.50;74.50
7562;DHT22;3822;48.784;9.174;2023-05-10T17:53:41;18.50;74.10
7562;DHT22;3822;48.784;9.174;2023-05-10T17:56:08;18.50;74.40